Time;durP1;ratioP1;P1;durP2;ratioP2;P2;SDS_P1;SDS_P2;PMS_P1;PMS_P2;Temp;Humidity;BMP_temperature;BMP_pressure;BME280_temperature;BME280_humidity;BME280_pressure;Samples;Min_cycle;Max_cycle;Signal;HPM_P1;HPM_P2
2024/04/14 00:01:21;;;;;;;2.80;0.70;;;15.20;75.90;;;;;;5353016;26;20000;-81
2024/04/14 00:03:57;;;;;;;2.22;0.60;;;15.30;76.10;;;;;;5381155;26;20448;-81
2024/04/14 00:06:25;;;;;;;4.07;0.80;;;15.20;76.20;;;;;;5346559;26;20001;-81
2024/04/14 00:08:53;;;;;;;2.38;0.52;;;15.20;76.40;;;;;;5368208;26;20134;-81
2024/04/14 00:11:20;;;;;;;2.50;0.88;;;15.20;77.20;;;;;;5351751;26;20403;-81
2024/04/14 00:13:47;;;;;;;4.32;1.35;;;15.10;76.70;;;;;;5380934;26;20000;-81
2024/04/14 00:16:14;;;;;;;3.20;1.15;;;15.10;76.90;;;;;;5380821;26;20102;-81
2024/04/14 00:18:41;;;;;;;2.55;0.70;;;15.00;77.00;;;;;;5380929;26;20012;-81
2024/04/14 00:21:10;;;;;;;3.65;0.80;;;15.00;77.20;;;;;;5382398;26;20372;-81
2024/04/14 00:23:37;;;;;;;4.10;0.98;;;15.00;77.40;;;;;;5382743;26;20001;-81
2024/04/14 00:26:07;;;;;;;2.00;0.70;;;15.00;77.40;;;;;;5381125;26;20340;-81
2024/04/14 00:28:35;;;;;;;4.10;0.85;;;14.90;77.60;;;;;;5410050;26;20357;-81
2024/04/14 00:31:05;;;;;;;2.55;0.65;;;14.90;77.70;;;;;;5352375;26;20022;-81
2024/04/14 00:33:35;;;;;;;3.33;0.60;;;14.90;77.90;;;;;;5382605;26;20069;-81
2024/04/14 00:36:04;;;;;;;2.08;0.70;;;14.90;78.10;;;;;;5381159;26;20016;-81
2024/04/14 00:38:31;;;;;;;3.28;0.70;;;14.90;78.30;;;;;;5380685;26;19996;-80
2024/04/14 00:41:00;;;;;;;2.28;0.52;;;14.90;78.50;;;;;;5323501;26;20011;-81
2024/04/14 00:43:27;;;;;;;4.15;0.70;;;14.90;78.70;;;;;;5351506;26;20073;-80
2024/04/14 00:45:54;;;;;;;2.28;0.70;;;14.80;78.90;;;;;;5380594;26;20012;-81
2024/04/14 00:48:22;;;;;;;3.25;1.00;;;14.80;79.20;;;;;;5351538;26;20033;-81
2024/04/14 00:50:50;;;;;;;2.22;0.82;;;14.70;79.30;;;;;;5380663;26;20015;-81
2024/04/14 00:53:18;;;;;;;4.90;0.75;;;14.70;79.50;;;;;;5351437;26;20011;-81
2024/04/14 00:55:46;;;;;;;3.67;0.55;;;14.60;79.70;;;;;;5380358;26;20003;-80
2024/04/14 00:58:16;;;;;;;4.30;0.60;;;14.60;79.90;;;;;;5345557;26;20338;-80
2024/04/14 01:00:44;;;;;;;2.33;1.17;;;14.60;80.10;;;;;;5373560;26;20010;-81
2024/04/14 01:03:11;;;;;;;1.98;0.98;;;14.60;80.40;;;;;;5382319;26;20004;-81
2024/04/14 01:05:38;;;;;;;3.50;0.60;;;14.50;80.50;;;;;;5399015;26;20318;-80
2024/04/14 01:08:06;;;;;;;7.00;0.95;;;14.50;80.70;;;;;;5409618;26;20081;-81
2024/04/14 01:10:37;;;;;;;3.30;0.88;;;14.50;80.90;;;;;;5380424;26;20395;-81
2024/04/14 01:13:04;;;;;;;5.22;0.90;;;14.50;81.00;;;;;;5380261;26;20072;-81
2024/04/14 01:15:34;;;;;;;4.10;1.05;;;14.40;81.10;;;;;;5379938;26;20324;-80
2024/04/14 01:18:01;;;;;;;6.13;1.13;;;14.50;81.30;;;;;;5381631;26;20008;-81
2024/04/14 01:20:30;;;;;;;3.00;0.82;;;14.40;81.50;;;;;;5350982;26;20008;-80
2024/04/14 01:23:00;;;;;;;3.40;1.00;;;14.40;81.60;;;;;;5403889;26;20051;-80
2024/04/14 01:25:27;;;;;;;3.67;1.02;;;14.40;81.80;;;;;;5349171;26;20000;-80
2024/04/14 01:27:54;;;;;;;2.00;0.73;;;14.30;81.90;;;;;;5379651;26;20096;-81
2024/04/14 01:30:22;;;;;;;2.22;0.68;;;14.30;82.10;;;;;;5379676;26;20077;-81
2024/04/14 01:32:49;;;;;;;4.13;0.95;;;14.30;82.40;;;;;;5345014;26;20005;-80
2024/04/14 01:35:16;;;;;;;2.55;0.80;;;14.30;82.70;;;;;;5373018;26;20008;-81
2024/04/14 01:37:43;;;;;;;3.80;0.90;;;14.20;82.80;;;;;;5350633;26;20019;-81
2024/04/14 01:40:13;;;;;;;3.67;0.90;;;14.20;82.80;;;;;;5379824;26;20073;-81
2024/04/14 01:42:41;;;;;;;3.63;0.93;;;14.20;83.00;;;;;;5350390;26;20008;-81
2024/04/14 01:45:09;;;;;;;4.53;0.80;;;14.20;83.10;;;;;;5408961;26;20440;-82
2024/04/14 01:47:37;;;;;;;3.80;0.60;;;14.20;83.20;;;;;;5379544;26;20333;-81
2024/04/14 01:50:05;;;;;;;2.17;0.75;;;14.30;83.30;;;;;;5379649;26;20015;-82
2024/04/14 01:52:32;;;;;;;2.58;0.80;;;14.30;83.40;;;;;;5379642;26;20395;-81
2024/04/14 01:54:59;;;;;;;2.70;0.60;;;14.30;83.50;;;;;;5379599;26;20000;-80
2024/04/14 01:57:27;;;;;;;4.57;1.25;;;14.30;83.60;;;;;;5379285;26;20448;-80
2024/04/14 01:59:54;;;;;;;3.03;0.60;;;14.30;83.70;;;;;;5344562;26;20393;-80
2024/04/14 02:02:21;;;;;;;3.05;0.65;;;14.30;83.90;;;;;;5350328;26;20008;-82
2024/04/14 02:04:48;;;;;;;3.13;1.00;;;14.20;83.90;;;;;;5379376;26;20012;-81
2024/04/14 02:07:15;;;;;;;4.25;0.70;;;14.20;84.80;;;;;;5379028;26;20003;-80
2024/04/14 02:09:42;;;;;;;4.07;0.90;;;14.20;84.30;;;;;;5350700;26;20001;-80
2024/04/14 02:12:11;;;;;;;1.83;0.85;;;14.30;84.30;;;;;;5380834;26;20075;-80
2024/04/14 02:14:38;;;;;;;4.60;1.00;;;14.20;84.20;;;;;;5379975;26;20077;-81
2024/04/14 02:17:05;;;;;;;3.28;1.02;;;14.30;84.40;;;;;;5365783;26;20518;-81
2024/04/14 02:19:34;;;;;;;2.50;0.60;;;14.20;84.40;;;;;;5353317;26;20011;-81
2024/04/14 02:22:03;;;;;;;5.97;0.95;;;14.20;84.40;;;;;;5354399;26;20004;-80
2024/04/14 02:24:32;;;;;;;6.75;1.25;;;14.20;84.50;;;;;;5384151;26;20405;-79
2024/04/14 02:27:01;;;;;;;2.25;0.90;;;14.10;84.40;;;;;;5382441;26;19996;-81
2024/04/14 02:29:28;;;;;;;4.13;0.40;;;14.10;84.40;;;;;;5353466;26;20047;-79
2024/04/14 02:31:55;;;;;;;2.08;0.70;;;14.00;84.20;;;;;;5382057;26;20069;-80
2024/04/14 02:34:22;;;;;;;5.50;0.55;;;14.00;84.30;;;;;;5353757;26;20033;-79
2024/04/14 02:36:49;;;;;;;4.93;0.63;;;13.90;84.30;;;;;;5382349;26;20000;-80
2024/04/14 02:39:16;;;;;;;3.38;0.85;;;13.90;84.20;;;;;;5384035;26;20019;-80
2024/04/14 02:41:43;;;;;;;3.13;0.35;;;13.90;84.20;;;;;;5381991;26;20332;-81
2024/04/14 02:44:12;;;;;;;3.17;0.30;;;13.80;84.20;;;;;;5348893;26;20019;-81
2024/04/14 02:46:39;;;;;;;0.77;0.20;;;13.80;84.30;;;;;;5382567;26;20007;-81
2024/04/14 02:49:06;;;;;;;2.75;0.30;;;13.70;84.40;;;;;;5382016;26;20337;-81
2024/04/14 02:51:33;;;;;;;2.72;0.40;;;13.70;84.50;;;;;;5353510;26;20000;-81
2024/04/14 02:54:01;;;;;;;1.27;0.30;;;13.60;84.30;;;;;;5382243;26;20033;-81
2024/04/14 02:56:28;;;;;;;1.23;0.22;;;13.60;84.30;;;;;;5382561;26;20073;-81
2024/04/14 02:58:58;;;;;;;1.88;0.30;;;13.60;84.30;;;;;;5383746;26;20000;-82
2024/04/14 03:01:25;;;;;;;3.97;0.80;;;13.60;84.30;;;;;;5324300;26;20466;-81
2024/04/14 03:03:52;;;;;;;3.85;0.50;;;13.50;84.30;;;;;;5348045;26;20005;-81
2024/04/14 03:06:20;;;;;;;1.80;0.22;;;13.50;84.20;;;;;;5383622;26;20008;-81
2024/04/14 03:08:47;;;;;;;1.73;0.22;;;13.50;84.20;;;;;;5369852;26;20074;-81
2024/04/14 03:11:15;;;;;;;2.78;0.30;;;13.50;84.20;;;;;;5378803;26;20074;-80
2024/04/14 03:13:42;;;;;;;3.05;0.30;;;13.50;84.10;;;;;;5383565;26;20012;-81
2024/04/14 03:16:09;;;;;;;3.85;0.35;;;13.40;84.10;;;;;;5381777;26;20008;-81
2024/04/14 03:18:39;;;;;;;2.15;0.30;;;13.40;84.20;;;;;;5381835;26;20374;-81
2024/04/14 03:21:06;;;;;;;2.13;0.20;;;13.30;84.00;;;;;;5381848;26;19996;-81
2024/04/14 03:23:36;;;;;;;1.95;0.30;;;13.20;84.00;;;;;;5353008;26;20004;-81
2024/04/14 03:26:04;;;;;;;3.92;0.32;;;13.20;84.00;;;;;;5381038;26;20000;-80
2024/04/14 03:28:34;;;;;;;1.83;0.30;;;13.10;84.10;;;;;;5381362;26;20570;-80
2024/04/14 03:31:04;;;;;;;2.28;0.40;;;13.10;84.20;;;;;;5381287;26;20013;-80
2024/04/14 03:33:31;;;;;;;3.28;0.40;;;13.10;84.80;;;;;;5352621;26;20032;-80
2024/04/14 03:36:03;;;;;;;3.53;0.40;;;13.10;84.10;;;;;;5381629;26;20051;-80
2024/04/14 03:38:32;;;;;;;2.42;0.30;;;13.10;84.10;;;;;;5381384;26;20016;-80
2024/04/14 03:40:59;;;;;;;2.60;0.20;;;13.10;84.20;;;;;;5388305;26;20000;-80
2024/04/14 03:43:27;;;;;;;1.02;0.20;;;13.00;84.20;;;;;;5381404;26;20007;-80
2024/04/14 03:45:54;;;;;;;3.10;0.20;;;13.00;84.30;;;;;;5382961;26;20008;-80
2024/04/14 03:48:23;;;;;;;2.50;0.30;;;12.90;84.30;;;;;;5381709;26;20008;-81
2024/04/14 03:50:52;;;;;;;2.05;0.20;;;12.90;84.40;;;;;;5381255;26;20004;-80
2024/04/14 03:53:19;;;;;;;1.55;0.20;;;12.90;84.50;;;;;;5381023;26;20444;-80
2024/04/14 03:55:48;;;;;;;1.75;0.25;;;12.80;84.60;;;;;;5381056;26;20456;-80
2024/04/14 03:58:15;;;;;;;3.88;0.30;;;12.80;84.80;;;;;;5381160;26;20398;-81
2024/04/14 04:00:44;;;;;;;2.35;0.25;;;12.70;84.90;;;;;;5382909;26;20054;-80
2024/04/14 04:03:11;;;;;;;0.93;0.30;;;12.70;84.90;;;;;;5381193;26;20007;-80
2024/04/14 04:05:38;;;;;;;2.10;0.38;;;12.70;84.90;;;;;;5381092;26;20007;-80
2024/04/14 04:08:06;;;;;;;1.55;0.20;;;12.70;85.00;;;;;;5380958;26;19996;-80
2024/04/14 04:10:37;;;;;;;2.13;0.55;;;12.70;85.00;;;;;;5381087;26;20073;-80
2024/04/14 04:13:04;;;;;;;1.73;0.22;;;12.70;85.00;;;;;;5381825;26;20367;-80
2024/04/14 04:15:31;;;;;;;2.22;0.20;;;12.70;85.20;;;;;;5380943;26;20000;-81
2024/04/14 04:17:58;;;;;;;1.45;0.32;;;12.70;85.30;;;;;;5351773;26;20355;-81
2024/04/14 04:20:25;;;;;;;1.55;0.20;;;12.70;85.30;;;;;;5380909;26;20077;-80
2024/04/14 04:22:52;;;;;;;3.53;0.40;;;12.60;85.30;;;;;;5349312;26;19997;-80
2024/04/14 04:25:19;;;;;;;2.42;0.20;;;12.60;85.50;;;;;;5380728;26;20340;-80
2024/04/14 04:27:46;;;;;;;1.88;0.20;;;12.50;85.50;;;;;;5380679;26;20012;-80
2024/04/14 04:30:14;;;;;;;4.85;0.30;;;12.50;85.70;;;;;;5352040;26;20010;-81
2024/04/14 04:32:42;;;;;;;2.03;0.20;;;12.40;85.70;;;;;;5382733;26;20485;-81
2024/04/14 04:35:09;;;;;;;2.30;0.30;;;12.40;85.80;;;;;;5351939;26;20016;-81
2024/04/14 04:37:36;;;;;;;2.33;0.10;;;12.40;86.00;;;;;;5380515;26;20066;-81
2024/04/14 04:40:03;;;;;;;1.30;0.30;;;12.30;86.00;;;;;;5346361;26;20001;-81
2024/04/14 04:42:33;;;;;;;2.58;0.20;;;12.30;86.20;;;;;;5352191;26;20000;-81
2024/04/14 04:45:00;;;;;;;3.30;0.30;;;12.30;86.20;;;;;;5374502;26;20115;-81
2024/04/14 04:47:27;;;;;;;4.05;0.40;;;12.30;86.30;;;;;;5377672;26;20012;-81
2024/04/14 04:49:54;;;;;;;1.75;0.30;;;12.30;86.30;;;;;;5351697;26;20394;-81
2024/04/14 04:52:21;;;;;;;3.17;0.40;;;12.30;86.30;;;;;;5380401;26;20004;-81
2024/04/14 04:54:48;;;;;;;3.40;0.20;;;12.30;86.30;;;;;;5351537;26;20073;-80
2024/04/14 04:57:15;;;;;;;3.30;0.43;;;12.30;86.20;;;;;;5351510;26;20000;-80
2024/04/14 04:59:42;;;;;;;4.78;0.28;;;12.30;86.10;;;;;;5380576;26;20004;-81
2024/04/14 05:02:09;;;;;;;3.42;0.30;;;12.30;86.00;;;;;;5380106;26;19996;-81
2024/04/14 05:04:38;;;;;;;2.25;0.40;;;12.30;85.90;;;;;;5409719;26;19996;-80
2024/04/14 05:07:08;;;;;;;2.45;0.28;;;12.40;85.90;;;;;;5351853;26;20006;-80
2024/04/14 05:09:35;;;;;;;2.20;0.20;;;12.40;85.80;;;;;;5381725;26;20004;-80
2024/04/14 05:12:03;;;;;;;1.73;0.20;;;12.50;85.80;;;;;;5380338;26;20516;-81
2024/04/14 05:14:32;;;;;;;5.05;0.38;;;12.50;85.80;;;;;;5382155;26;20008;-80
2024/04/14 05:16:59;;;;;;;2.70;0.40;;;12.50;85.70;;;;;;5409359;26;19996;-80
2024/04/14 05:19:29;;;;;;;3.00;0.30;;;12.50;86.40;;;;;;5350926;26;20336;-80
2024/04/14 05:21:57;;;;;;;1.42;0.45;;;12.50;85.70;;;;;;5379876;26;20032;-81
2024/04/14 05:24:24;;;;;;;1.52;0.30;;;12.50;85.80;;;;;;5379856;26;20008;-81
2024/04/14 05:26:53;;;;;;;2.55;0.20;;;12.50;85.80;;;;;;5350978;26;20011;-81
2024/04/14 05:29:21;;;;;;;3.20;0.30;;;12.50;85.70;;;;;;5381423;26;19997;-81
2024/04/14 05:31:48;;;;;;;4.00;0.32;;;12.60;85.70;;;;;;5379773;26;20012;-81
2024/04/14 05:34:15;;;;;;;3.75;0.32;;;12.50;85.50;;;;;;5379895;26;20001;-81
2024/04/14 05:36:44;;;;;;;2.20;0.32;;;12.50;85.60;;;;;;5379809;26;20012;-81
2024/04/14 05:39:11;;;;;;;3.78;0.20;;;12.50;85.50;;;;;;5357478;26;20000;-81
2024/04/14 05:41:38;;;;;;;1.25;0.20;;;12.60;85.60;;;;;;5350791;26;20004;-81
2024/04/14 05:44:05;;;;;;;1.63;0.20;;;12.60;85.50;;;;;;5322338;26;20000;-81
2024/04/14 05:46:32;;;;;;;3.33;0.30;;;12.70;85.50;;;;;;5351086;26;20012;-81
2024/04/14 05:48:59;;;;;;;2.08;0.20;;;12.70;85.40;;;;;;5379534;26;19997;-81
2024/04/14 05:51:45;;;;;;;4.28;0.55;;;12.80;85.30;;;;;;5383535;26;20070;-81
2024/04/14 05:54:12;;;;;;;4.43;0.40;;;12.80;85.20;;;;;;5383083;26;19997;-81
2024/04/14 05:56:39;;;;;;;1.85;0.50;;;12.80;85.10;;;;;;5383020;26;20463;-81
2024/04/14 05:59:06;;;;;;;1.70;0.20;;;12.80;85.00;;;;;;5383150;26;20012;-80
2024/04/14 06:01:33;;;;;;;2.25;0.30;;;12.90;85.00;;;;;;5353837;26;20000;-80
2024/04/14 06:04:01;;;;;;;3.50;0.40;;;12.90;84.90;;;;;;5382733;26;20069;-81
2024/04/14 06:06:28;;;;;;;3.47;0.50;;;12.90;84.60;;;;;;5382764;26;20012;-80
2024/04/14 06:08:55;;;;;;;2.35;0.28;;;12.80;84.20;;;;;;5370988;26;20004;-80
2024/04/14 06:11:22;;;;;;;2.17;0.20;;;12.90;84.20;;;;;;5372172;26;20083;-81
2024/04/14 06:13:49;;;;;;;2.72;0.35;;;12.90;84.20;;;;;;5396626;26;20406;-81
2024/04/14 06:16:16;;;;;;;3.72;0.35;;;12.90;84.00;;;;;;5382428;26;20008;-80
2024/04/14 06:18:43;;;;;;;2.78;0.52;;;13.00;83.70;;;;;;5353837;26;20449;-80
2024/04/14 06:21:10;;;;;;;4.10;0.40;;;12.90;83.60;;;;;;5351163;26;20419;-80
2024/04/14 06:23:38;;;;;;;1.67;0.20;;;12.90;83.30;;;;;;5382198;26;20364;-81
2024/04/14 06:26:05;;;;;;;2.10;0.30;;;12.90;83.40;;;;;;5383833;26;20018;-81
2024/04/14 06:28:39;;;;;;;3.05;0.40;;;13.00;83.40;;;;;;5382135;26;20433;-81
2024/04/14 06:31:08;;;;;;;2.10;0.20;;;13.00;83.30;;;;;;5382316;26;20474;-81
2024/04/14 06:33:35;;;;;;;0.80;0.10;;;13.10;83.30;;;;;;5382290;26;20078;-81
2024/04/14 06:36:03;;;;;;;0.90;0.17;;;13.10;83.10;;;;;;5353499;26;20001;-81
2024/04/14 06:38:30;;;;;;;2.67;0.40;;;13.20;83.10;;;;;;5411798;26;20008;-81
2024/04/14 06:40:58;;;;;;;3.60;0.30;;;13.30;83.00;;;;;;5382503;26;19996;-81
2024/04/14 06:43:25;;;;;;;4.50;0.40;;;13.30;82.90;;;;;;5382236;26;20011;-81
2024/04/14 06:45:54;;;;;;;2.08;0.35;;;13.30;82.80;;;;;;5382194;26;20043;-81
2024/04/14 06:48:21;;;;;;;6.20;1.00;;;13.40;82.80;;;;;;5382409;26;20361;-81
2024/04/14 06:50:48;;;;;;;2.75;0.50;;;13.40;82.50;;;;;;5353013;26;20014;-81
2024/04/14 06:53:20;;;;;;;0.88;0.20;;;13.40;82.50;;;;;;5353046;26;20008;-81
2024/04/14 06:55:50;;;;;;;4.30;0.70;;;13.40;82.40;;;;;;5381740;26;20011;-79
2024/04/14 06:58:18;;;;;;;3.25;0.43;;;13.50;82.40;;;;;;5382804;26;20444;-81
2024/04/14 07:00:48;;;;;;;2.97;0.20;;;13.50;82.00;;;;;;5383547;26;20007;-81
2024/04/14 07:03:18;;;;;;;3.80;0.50;;;13.50;82.00;;;;;;5382218;26;20015;-82
2024/04/14 07:05:45;;;;;;;5.38;0.47;;;13.50;82.10;;;;;;5382262;26;20043;-81
2024/04/14 07:08:13;;;;;;;3.05;0.60;;;13.60;81.90;;;;;;5353116;26;20016;-84
2024/04/14 07:10:40;;;;;;;4.32;0.43;;;13.60;81.70;;;;;;5382469;26;20485;-85
2024/04/14 07:13:07;;;;;;;2.20;0.50;;;13.50;81.30;;;;;;5352718;26;20014;-84
2024/04/14 07:15:34;;;;;;;2.78;0.50;;;13.50;81.30;;;;;;5381662;26;19996;-83
2024/04/14 07:18:01;;;;;;;4.95;0.43;;;13.50;81.10;;;;;;5381610;26;20004;-83
2024/04/14 07:20:29;;;;;;;4.60;0.65;;;13.50;81.10;;;;;;5353099;26;20043;-84
2024/04/14 07:22:56;;;;;;;7.68;0.68;;;13.50;81.10;;;;;;5381838;26;20065;-84
2024/04/14 07:25:23;;;;;;;2.03;0.40;;;13.60;81.10;;;;;;5381944;26;20448;-83
2024/04/14 07:27:51;;;;;;;2.63;0.30;;;13.70;80.80;;;;;;5381470;26;20409;-84
2024/04/14 07:30:20;;;;;;;2.33;0.25;;;13.70;80.60;;;;;;5381563;26;20016;-83
2024/04/14 07:32:48;;;;;;;4.63;0.90;;;13.80;80.60;;;;;;5381630;26;20012;-83
2024/04/14 07:35:15;;;;;;;3.65;0.60;;;13.80;80.20;;;;;;5324217;26;20459;-82
2024/04/14 07:37:42;;;;;;;6.28;0.70;;;13.80;79.80;;;;;;5383257;26;20070;-83
2024/04/14 07:40:10;;;;;;;4.28;0.88;;;13.80;79.80;;;;;;5381285;26;20020;-82
2024/04/14 07:42:37;;;;;;;3.38;0.70;;;13.70;79.40;;;;;;5381045;26;20014;-84
2024/04/14 07:45:07;;;;;;;3.92;0.35;;;13.70;79.40;;;;;;5381205;26;20004;-84
2024/04/14 07:47:34;;;;;;;4.43;0.57;;;13.70;79.40;;;;;;5352977;26;20073;-84
2024/04/14 07:50:03;;;;;;;3.28;0.40;;;13.80;79.10;;;;;;5367188;26;20000;-84
2024/04/14 07:52:32;;;;;;;3.40;0.52;;;13.70;78.90;;;;;;5381005;26;20004;-84
2024/04/14 07:54:59;;;;;;;5.95;1.02;;;13.80;78.90;;;;;;5351647;26;20007;-83
2024/04/14 07:57:29;;;;;;;5.43;0.68;;;13.80;78.60;;;;;;5381425;26;20070;-83
2024/04/14 07:59:56;;;;;;;2.92;0.40;;;13.90;78.60;;;;;;5352935;26;20007;-83
2024/04/14 08:02:23;;;;;;;3.75;0.47;;;14.10;78.30;;;;;;5352350;26;20008;-83
2024/04/14 08:04:50;;;;;;;2.80;0.30;;;14.20;78.00;;;;;;5381127;26;20001;-83
2024/04/14 08:07:18;;;;;;;3.65;0.77;;;14.20;77.90;;;;;;5382228;26;20491;-84
2024/04/14 08:09:47;;;;;;;3.80;0.80;;;14.20;77.70;;;;;;5381223;26;20016;-84
2024/04/14 08:12:15;;;;;;;3.25;0.30;;;14.10;77.70;;;;;;5380167;26;20000;-85
2024/04/14 08:14:42;;;;;;;7.43;0.60;;;14.20;77.80;;;;;;5380871;26;20411;-84
2024/04/14 08:17:09;;;;;;;3.22;0.65;;;14.20;77.10;;;;;;5380978;26;20474;-84
2024/04/14 08:19:36;;;;;;;6.35;0.40;;;14.20;77.20;;;;;;5380700;26;20073;-84
2024/04/14 08:22:03;;;;;;;5.15;0.52;;;14.20;77.20;;;;;;5380532;26;20004;-83
2024/04/14 08:24:30;;;;;;;3.45;0.38;;;14.30;77.10;;;;;;5346750;26;20408;-84
2024/04/14 08:26:58;;;;;;;2.72;0.47;;;14.30;76.40;;;;;;5380732;26;20022;-84
2024/04/14 08:29:26;;;;;;;2.80;0.40;;;14.40;76.30;;;;;;5380699;26;20008;-84
2024/04/14 08:31:55;;;;;;;1.98;0.50;;;14.50;76.20;;;;;;5330083;26;20463;-86
2024/04/14 08:34:23;;;;;;;3.38;0.70;;;14.60;75.60;;;;;;5335912;26;20527;-84
2024/04/14 08:36:50;;;;;;;5.00;1.00;;;14.60;74.10;;;;;;5371245;26;20000;-83
2024/04/14 08:39:18;;;;;;;2.20;0.70;;;14.60;73.30;;;;;;5368557;26;20004;-84
2024/04/14 08:41:46;;;;;;;5.25;0.47;;;14.60;71.60;;;;;;5381047;26;20007;-84
2024/04/14 08:44:15;;;;;;;2.67;0.38;;;14.60;71.00;;;;;;5380197;26;20090;-84
2024/04/14 08:46:43;;;;;;;2.95;0.40;;;14.60;71.00;;;;;;5380349;26;20353;-83
2024/04/14 08:49:12;;;;;;;2.90;0.40;;;14.70;71.30;;;;;;5380476;26;20000;-83
2024/04/14 08:51:39;;;;;;;5.35;0.45;;;14.80;70.60;;;;;;5374712;26;20139;-84
2024/04/14 08:54:07;;;;;;;3.58;0.50;;;14.80;68.70;;;;;;5322788;26;20004;-84
2024/04/14 08:56:38;;;;;;;2.78;0.40;;;14.80;68.70;;;;;;5374470;26;20070;-84
2024/04/14 08:59:06;;;;;;;2.70;0.35;;;14.80;68.80;;;;;;5347592;26;19997;-84
2024/04/14 09:01:38;;;;;;;3.15;0.60;;;14.90;68.90;;;;;;5316871;26;20016;-84
2024/04/14 09:04:05;;;;;;;5.00;0.50;;;15.00;68.90;;;;;;5376314;26;19997;-84
2024/04/14 09:06:34;;;;;;;1.85;0.40;;;15.00;68.40;;;;;;5380190;26;20070;-84
2024/04/14 09:09:05;;;;;;;3.30;0.30;;;15.10;67.40;;;;;;5380200;26;20012;-83
2024/04/14 09:11:32;;;;;;;4.80;0.60;;;15.10;67.90;;;;;;5347131;26;20452;-84
2024/04/14 09:14:02;;;;;;;2.90;0.32;;;15.20;67.50;;;;;;5371065;26;20016;-85
2024/04/14 09:16:29;;;;;;;6.10;0.60;;;15.20;67.40;;;;;;5381663;26;20012;-85
2024/04/14 09:18:56;;;;;;;4.60;0.45;;;15.20;66.90;;;;;;5380208;26;20019;-84
2024/04/14 09:21:24;;;;;;;2.83;0.50;;;15.10;66.60;;;;;;5379891;26;20087;-84
2024/04/14 09:23:56;;;;;;;1.63;0.40;;;15.00;66.20;;;;;;5379807;26;20004;-82
2024/04/14 09:26:26;;;;;;;4.43;1.13;;;15.00;65.70;;;;;;5321551;26;20004;-81
2024/04/14 09:29:07;;;;;;;2.15;0.40;;;14.90;65.30;;;;;;5379393;26;20401;-82
2024/04/14 09:31:35;;;;;;;3.70;0.55;;;14.90;65.40;;;;;;5382270;26;20007;-88
2024/04/14 09:34:06;;;;;;;2.70;0.40;;;14.90;65.10;;;;;;5382168;26;20008;-88
2024/04/14 09:36:36;;;;;;;3.10;0.50;;;14.80;64.90;;;;;;5379532;26;20007;-88
2024/04/14 09:39:05;;;;;;;2.22;0.30;;;14.90;65.00;;;;;;5380352;26;20008;-88
2024/04/14 09:41:37;;;;;;;5.22;0.43;;;15.00;65.50;;;;;;5379624;26;20007;-87
2024/04/14 09:44:06;;;;;;;4.80;0.70;;;15.00;65.30;;;;;;5381094;26;20011;-92
2024/04/14 09:46:52;;;;;;;2.38;0.47;;;15.10;65.80;;;;;;5381121;26;20004;-89
2024/04/14 09:49:23;;;;;;;4.25;0.43;;;15.40;65.90;;;;;;5409531;26;20000;-90
2024/04/14 09:51:54;;;;;;;2.75;0.40;;;15.60;65.40;;;;;;5344867;26;20015;-88
2024/04/14 09:54:23;;;;;;;11.02;0.95;;;15.70;65.40;;;;;;5349773;26;20000;-86
2024/04/14 09:56:50;;;;;;;3.65;0.40;;;15.90;64.60;;;;;;5382587;26;20004;-85
2024/04/14 09:59:17;;;;;;;4.55;0.82;;;16.00;64.60;;;;;;5361249;26;20004;-88
2024/04/14 10:01:46;;;;;;;5.30;0.55;;;16.10;63.50;;;;;;5380031;26;20004;-91
2024/04/14 10:04:14;;;;;;;4.30;0.47;;;16.10;62.90;;;;;;5351217;26;20024;-88
2024/04/14 10:06:44;;;;;;;3.15;0.50;;;16.10;63.30;;;;;;5379434;26;20081;-87
2024/04/14 10:09:12;;;;;;;2.80;0.50;;;16.10;63.20;;;;;;5379645;26;20004;-87
2024/04/14 10:11:41;;;;;;;4.30;0.65;;;16.20;63.40;;;;;;5379460;26;20001;-88
2024/04/14 10:14:14;;;;;;;6.28;0.60;;;16.30;63.20;;;;;;5379548;26;20000;-89
2024/04/14 10:16:54;;;;;;;5.03;0.82;;;16.50;63.10;;;;;;5378109;26;20024;-88
2024/04/14 10:19:22;;;;;;;2.42;0.50;;;16.60;62.90;;;;;;5379527;26;20009;-88
2024/04/14 10:21:59;;;;;;;6.15;0.88;;;16.70;62.90;;;;;;5379468;26;20362;-88
2024/04/14 10:24:29;;;;;;;4.35;0.52;;;17.00;62.50;;;;;;5379152;26;20019;-88
2024/04/14 10:27:06;;;;;;;3.88;0.60;;;17.30;62.00;;;;;;5350499;26;19998;-86
2024/04/14 10:29:33;;;;;;;5.43;0.55;;;17.50;61.10;;;;;;5407887;26;20000;-86
2024/04/14 10:32:00;;;;;;;2.83;0.45;;;17.50;59.90;;;;;;5350212;26;20011;-85
2024/04/14 10:34:30;;;;;;;2.67;0.60;;;17.40;59.40;;;;;;5378809;26;19997;-85
2024/04/14 10:36:58;;;;;;;4.35;0.50;;;17.60;59.80;;;;;;5381255;26;20000;-86
2024/04/14 10:39:25;;;;;;;4.35;0.50;;;17.80;59.40;;;;;;5379890;26;20001;-86
2024/04/14 10:41:53;;;;;;;4.00;0.60;;;17.90;57.80;;;;;;5412025;26;20004;-86
2024/04/14 10:44:22;;;;;;;3.92;0.50;;;17.60;57.70;;;;;;5352867;26;20037;-85
2024/04/14 10:46:51;;;;;;;2.67;0.45;;;17.70;58.50;;;;;;5382290;26;20000;-84
2024/04/14 10:49:19;;;;;;;1.90;0.30;;;17.60;57.90;;;;;;5383668;26;20023;-82
2024/04/14 10:51:47;;;;;;;4.60;0.73;;;17.40;57.50;;;;;;5353389;26;20020;-87
2024/04/14 10:54:15;;;;;;;4.20;0.60;;;17.50;56.80;;;;;;5353152;26;20004;-84
2024/04/14 10:56:42;;;;;;;4.00;0.55;;;17.60;56.80;;;;;;5382201;26;20010;-86
2024/04/14 10:59:45;;;;;;;6.65;1.15;;;17.80;55.40;;;;;;5317119;26;20004;-87
2024/04/14 11:02:13;;;;;;;4.60;0.43;;;17.80;54.80;;;;;;5382963;26;20015;-90
2024/04/14 11:04:42;;;;;;;3.00;0.52;;;17.40;54.10;;;;;;5354462;26;20083;-90
2024/04/14 11:07:10;;;;;;;1.10;0.20;;;17.30;53.10;;;;;;5326056;26;20009;-89
2024/04/14 11:09:38;;;;;;;2.30;0.20;;;17.10;53.20;;;;;;5354430;26;20011;-90
2024/04/14 11:12:06;;;;;;;1.85;0.30;;;16.90;53.80;;;;;;5383123;26;20000;-91
2024/04/14 11:14:33;;;;;;;2.85;0.20;;;16.80;53.20;;;;;;5325792;26;20004;-91
2024/04/14 11:17:11;;;;;;;3.55;0.30;;;16.70;53.30;;;;;;5382105;26;20018;-91
2024/04/14 11:19:39;;;;;;;1.60;0.28;;;16.70;53.80;;;;;;5352609;26;20000;-82
2024/04/14 11:22:06;;;;;;;3.83;0.30;;;16.70;53.20;;;;;;5363621;26;20059;-82
2024/04/14 11:24:33;;;;;;;1.95;0.20;;;16.80;53.70;;;;;;5381252;26;20011;-82
2024/04/14 11:27:03;;;;;;;1.13;0.30;;;17.20;54.00;;;;;;5374952;26;20013;-80
2024/04/14 11:29:30;;;;;;;3.20;0.40;;;18.10;52.70;;;;;;5371157;26;20065;-81
2024/04/14 11:32:07;;;;;;;1.67;0.25;;;18.50;51.30;;;;;;5381347;26;20008;-85
2024/04/14 11:34:40;;;;;;;3.70;0.35;;;18.70;50.00;;;;;;5381973;26;20008;-89
2024/04/14 11:37:08;;;;;;;3.90;0.40;;;18.80;49.70;;;;;;5383567;26;20000;-89
2024/04/14 11:39:36;;;;;;;1.40;0.17;;;18.90;49.20;;;;;;5382098;26;20012;-88
2024/04/14 11:42:03;;;;;;;1.42;0.20;;;18.90;49.30;;;;;;5381388;26;20070;-87
2024/04/14 11:44:30;;;;;;;2.03;0.32;;;19.10;49.20;;;;;;5381753;26;20016;-88
2024/04/14 11:46:58;;;;;;;3.00;0.60;;;19.30;49.40;;;;;;5352371;26;20003;-84
2024/04/14 11:49:25;;;;;;;1.17;0.15;;;19.70;49.50;;;;;;5380824;26;20000;-82
2024/04/14 11:51:52;;;;;;;1.65;0.20;;;19.90;49.40;;;;;;5381036;26;20399;-83
2024/04/14 11:54:19;;;;;;;1.27;0.20;;;20.00;49.00;;;;;;5402346;26;20421;-82
2024/04/14 11:56:46;;;;;;;2.45;0.25;;;20.10;48.50;;;;;;5410639;26;20350;-81
2024/04/14 11:59:13;;;;;;;3.58;0.30;;;20.30;48.30;;;;;;5381264;26;20032;-83
2024/04/14 12:01:41;;;;;;;2.63;0.30;;;20.50;48.00;;;;;;5382283;26;20223;-84
2024/04/14 12:04:08;;;;;;;1.60;0.30;;;20.20;47.00;;;;;;5353644;26;20016;-81
2024/04/14 12:06:35;;;;;;;1.45;0.20;;;19.60;47.80;;;;;;5351919;26;20381;-82
2024/04/14 12:09:02;;;;;;;1.83;0.47;;;19.50;48.00;;;;;;5346132;26;20016;-82
2024/04/14 12:11:32;;;;;;;4.53;0.55;;;19.30;48.30;;;;;;5352065;26;20029;-82
2024/04/14 12:14:03;;;;;;;1.73;0.30;;;18.80;48.90;;;;;;5380554;26;20045;-82
2024/04/14 12:16:34;;;;;;;1.73;0.40;;;18.50;50.30;;;;;;5352341;26;20011;-82
2024/04/14 12:19:03;;;;;;;2.78;0.30;;;18.20;50.40;;;;;;5380768;26;20016;-83
2024/04/14 12:21:32;;;;;;;3.25;0.30;;;18.20;50.70;;;;;;5381127;26;20003;-82
2024/04/14 12:23:59;;;;;;;1.17;0.20;;;18.00;50.70;;;;;;5410386;26;20000;-88
2024/04/14 12:26:46;;;;;;;2.75;0.30;;;17.80;50.70;;;;;;5382066;26;19996;-92
2024/04/14 12:29:24;;;;;;;3.67;0.82;;;17.60;50.90;;;;;;5360333;26;20076;-88
2024/04/14 12:32:02;;;;;;;1.55;0.20;;;17.60;51.60;;;;;;5382137;26;20024;-92
2024/04/14 12:34:47;;;;;;;1.50;0.10;;;17.80;51.80;;;;;;5381194;26;20000;-93
2024/04/14 12:37:15;;;;;;;1.60;0.30;;;18.00;52.00;;;;;;5354344;26;20004;-92
2024/04/14 12:39:45;;;;;;;1.48;0.40;;;18.00;51.90;;;;;;5410127;26;20023;-85
2024/04/14 12:42:19;;;;;;;1.27;0.20;;;18.00;52.30;;;;;;5382259;26;20008;-86
2024/04/14 12:44:46;;;;;;;2.13;0.40;;;18.10;52.30;;;;;;5380162;26;20012;-85
2024/04/14 12:47:43;;;;;;;1.85;0.20;;;18.10;52.20;;;;;;5380476;26;20000;-88
2024/04/14 12:50:10;;;;;;;2.08;0.20;;;18.10;52.20;;;;;;5381534;26;19996;-88
2024/04/14 12:52:40;;;;;;;0.68;0.30;;;18.20;52.40;;;;;;5351913;26;20012;-87
2024/04/14 12:55:08;;;;;;;1.67;0.20;;;18.30;52.00;;;;;;5374433;26;20012;-82